Station Historical Data
Daily Summary for October 22, 2017 Units:  Metric    English   Both
« Previous Day
Next Day »
Daily Weekly Monthly Yearly Custom
  High: Low: Average:
Temperature: 24.6 °C 13.1 °C 18.7 °C
Dew Point: 18.3 °C 11.2 °C 15.1 °C
Humidity: 91% 66% 80%
Wind Speed: 46.3km/h 3.7km/h 15.6km/h
Wind Gust: 46.7km/h - -
Wind- - East
Pressure: 1026 hPa 1020.2 hPa -
Precipitation: 0 mm    
Historical Graphs
 
 
Tabular Data for October 22, 2017
Time Temperature Dew Point Pressure Wind Wind Speed Wind Gust Humidity Rainfall Rate (Hourly) Conditions
00:03 15.3 °C 12.1 °C 1026 hPa East 7.4 km/h 7.4 km/h 81% 0 mm CLR
00:14 15.2 °C 12.2 °C 1026 hPa East 7.4 km/h 7.4 km/h 82% 0 mm CLR
00:19 15.2 °C 12.1 °C 1025.6 hPa East 7.4 km/h 7.4 km/h 82% 0 mm CLR
00:24 15.1 °C 12.1 °C 1026 hPa East 7.4 km/h 7.4 km/h 82% 0 mm CLR
00:29 15.1 °C 12 °C 1026 hPa East 7.4 km/h 7.4 km/h 82% 0 mm CLR
00:34 15 °C 11.9 °C 1025.6 hPa East 7.4 km/h 7.4 km/h 82% 0 mm CLR
00:35 15 °C 11.9 °C 1025.6 hPa East 8 km/h 8 km/h 82% 0 mm CLR
00:40 14.9 °C 12 °C 1025.6 hPa East 7.4 km/h 7.4 km/h 83% 0 mm CLR
00:45 14.8 °C 11.9 °C 1025.6 hPa East 8 km/h 8 km/h 83% 0 mm CLR
00:50 14.7 °C 11.9 °C 1025.6 hPa East 8 km/h 8 km/h 83% 0 mm CLR
00:55 14.7 °C 11.8 °C 1025.6 hPa East 8 km/h 8 km/h 83% 0 mm CLR
01:00 14.6 °C 11.8 °C 1025.6 hPa East 8 km/h 8 km/h 83% 0 mm CLR
01:05 14.6 °C 11.9 °C 1025.6 hPa ENE 5.6 km/h 5.6 km/h 84% 0 mm CLR
01:10 14.6 °C 11.8 °C 1025.6 hPa ENE 5.6 km/h 5.6 km/h 83% 0 mm CLR
01:15 14.7 °C 11.9 °C 1025.3 hPa ENE 5.6 km/h 5.6 km/h 83% 0 mm CLR
01:20 14.8 °C 11.7 °C 1025.3 hPa ENE 5.6 km/h 5.6 km/h 82% 0 mm CLR
01:25 14.8 °C 11.7 °C 1025.3 hPa ENE 5.6 km/h 5.6 km/h 82% 0 mm CLR
01:30 14.7 °C 11.7 °C 1025.3 hPa ENE 5.6 km/h 5.6 km/h 82% 0 mm CLR
01:35 14.7 °C 11.8 °C 1025.3 hPa ENE 5.6 km/h 5.6 km/h 83% 0 mm CLR
01:40 14.6 °C 11.7 °C 1025.3 hPa ENE 5.6 km/h 5.6 km/h 83% 0 mm CLR
01:45 14.4 °C 11.6 °C 1025.3 hPa ENE 5.6 km/h 5.6 km/h 83% 0 mm CLR
01:50 14.4 °C 11.7 °C 1025.6 hPa ENE 5.6 km/h 5.6 km/h 84% 0 mm CLR
01:55 14.4 °C 11.7 °C 1025.6 hPa ENE 5.6 km/h 5.6 km/h 84% 0 mm CLR
02:00 14.3 °C 11.7 °C 1025.6 hPa ENE 5.6 km/h 5.6 km/h 84% 0 mm CLR
02:05 14.3 °C 11.6 °C 1025.6 hPa ENE 5.6 km/h 5.6 km/h 84% 0 mm CLR
02:10 14.2 °C 11.6 °C 1025.6 hPa ENE 5.6 km/h 5.6 km/h 84% 0 mm CLR
02:15 14.2 °C 11.6 °C 1025.3 hPa ENE 5.6 km/h 5.6 km/h 84% 0 mm CLR
02:20 14.2 °C 11.5 °C 1025.6 hPa ENE 5.6 km/h 5.6 km/h 84% 0 mm CLR
02:25 14.2 °C 11.5 °C 1025.3 hPa ENE 5.6 km/h 5.6 km/h 84% 0 mm CLR
02:31 14.2 °C 11.7 °C 1025.3 hPa ENE 5.6 km/h 5.6 km/h 85% 0 mm CLR
02:36 14.1 °C 11.6 °C 1025.3 hPa ENE 5.6 km/h 5.6 km/h 85% 0 mm CLR
02:41 14.1 °C 11.6 °C 1025.3 hPa ENE 5.6 km/h 5.6 km/h 85% 0 mm CLR
02:44 14.1 °C 11.6 °C 1025.3 hPa ENE 5.6 km/h 5.6 km/h 85% 0 mm CLR
02:49 14.1 °C 11.6 °C 1025.3 hPa ENE 5.6 km/h 5.6 km/h 85% 0 mm CLR
02:54 14.1 °C 11.6 °C 1025.3 hPa ENE 5.6 km/h 5.6 km/h 85% 0 mm CLR
03:00 14.1 °C 11.6 °C 1024.9 hPa ENE 4.8 km/h 4.8 km/h 85% 0 mm CLR
03:05 14.1 °C 11.6 °C 1025.3 hPa ENE 4.8 km/h 4.8 km/h 85% 0 mm CLR
03:10 14.1 °C 11.4 °C 1024.9 hPa ENE 4.8 km/h 4.8 km/h 84% 0 mm CLR
03:11 14.1 °C 11.4 °C 1024.9 hPa ENE 5.6 km/h 5.6 km/h 84% 0 mm CLR
03:16 14.1 °C 11.6 °C 1024.9 hPa ENE 5.6 km/h 5.6 km/h 85% 0 mm CLR
03:21 14.1 °C 11.4 °C 1024.9 hPa ENE 5.6 km/h 5.6 km/h 84% 0 mm CLR
03:26 14.1 °C 11.4 °C 1024.9 hPa ENE 5.6 km/h 5.6 km/h 84% 0 mm CLR
03:31 14.1 °C 11.4 °C 1024.9 hPa ENE 5.6 km/h 5.6 km/h 84% 0 mm CLR
03:36 14.1 °C 11.4 °C 1024.9 hPa ENE 5.6 km/h 5.6 km/h 84% 0 mm CLR
03:41 14.2 °C 11.5 °C 1024.9 hPa ENE 5.6 km/h 5.6 km/h 84% 0 mm CLR
03:46 14.2 °C 11.3 °C 1024.6 hPa ENE 5.6 km/h 5.6 km/h 83% 0 mm CLR
03:51 14.2 °C 11.3 °C 1024.6 hPa ENE 5.6 km/h 5.6 km/h 83% 0 mm CLR
03:56 14.2 °C 11.3 °C 1024.6 hPa ENE 5.6 km/h 5.6 km/h 83% 0 mm CLR
04:01 14.2 °C 11.4 °C 1024.6 hPa ENE 5.6 km/h 5.6 km/h 83% 0 mm CLR
04:06 14.2 °C 11.5 °C 1024.9 hPa ENE 5.6 km/h 5.6 km/h 84% 0 mm CLR
04:11 14.1 °C 11.4 °C 1024.6 hPa ENE 5.6 km/h 5.6 km/h 84% 0 mm CLR
04:16 14.1 °C 11.4 °C 1024.6 hPa ENE 5.6 km/h 5.6 km/h 84% 0 mm CLR
04:21 14.1 °C 11.4 °C 1024.6 hPa ENE 5.6 km/h 5.6 km/h 84% 0 mm CLR
04:26 14 °C 11.5 °C 1024.6 hPa ENE 5.6 km/h 5.6 km/h 85% 0 mm CLR
04:32 13.9 °C 11.3 °C 1024.6 hPa ENE 5.6 km/h 5.6 km/h 84% 0 mm CLR
04:37 13.9 °C 11.3 °C 1024.6 hPa ENE 5.6 km/h 5.6 km/h 84% 0 mm CLR
04:42 13.9 °C 11.3 °C 1024.6 hPa ENE 5.6 km/h 5.6 km/h 84% 0 mm CLR
04:47 13.9 °C 11.4 °C 1024.6 hPa ENE 5.6 km/h 5.6 km/h 85% 0 mm CLR
04:52 13.8 °C 11.3 °C 1024.6 hPa ENE 5.6 km/h 5.6 km/h 85% 0 mm CLR
04:57 13.8 °C 11.3 °C 1024.3 hPa ENE 5.6 km/h 5.6 km/h 85% 0 mm CLR
05:02 13.7 °C 11.4 °C 1024.3 hPa ENE 5.6 km/h 5.6 km/h 86% 0 mm CLR
05:07 13.6 °C 11.3 °C 1024.3 hPa ENE 5.6 km/h 5.6 km/h 86% 0 mm CLR
05:12 13.4 °C 11.2 °C 1024.6 hPa ENE 5.6 km/h 5.6 km/h 86% 0 mm CLR
05:17 13.4 °C 11.3 °C 1024.3 hPa ENE 5.6 km/h 5.6 km/h 87% 0 mm CLR
05:22 13.4 °C 11.3 °C 1024.3 hPa ENE 5.6 km/h 5.6 km/h 87% 0 mm CLR
05:27 13.4 °C 11.3 °C 1024.3 hPa ENE 5.6 km/h 5.6 km/h 87% 0 mm CLR
05:32 13.4 °C 11.3 °C 1024.6 hPa ENE 5.6 km/h 5.6 km/h 87% 0 mm CLR
05:37 13.4 °C 11.3 °C 1024.6 hPa ENE 5.6 km/h 5.6 km/h 87% 0 mm CLR
05:42 13.4 °C 11.3 °C 1024.6 hPa ENE 5.6 km/h 5.6 km/h 87% 0 mm CLR
05:47 13.4 °C 11.3 °C 1024.6 hPa ENE 5.6 km/h 5.6 km/h 87% 0 mm CLR
05:52 13.3 °C 11.2 °C 1024.6 hPa ENE 5.6 km/h 5.6 km/h 87% 0 mm CLR
05:57 13.3 °C 11.4 °C 1024.6 hPa ENE 5.6 km/h 5.6 km/h 88% 0 mm CLR
06:02 13.3 °C 11.3 °C 1024.6 hPa ENE 5.6 km/h 5.6 km/h 88% 0 mm CLR
06:07 13.3 °C 11.3 °C 1024.6 hPa ENE 5.6 km/h 5.6 km/h 88% 0 mm CLR
06:12 13.3 °C 11.3 °C 1024.6 hPa ENE 5.6 km/h 5.6 km/h 88% 0 mm CLR
06:17 13.4 °C 11.4 °C 1024.6 hPa ENE 5.6 km/h 5.6 km/h 88% 0 mm CLR
06:23 13.4 °C 11.4 °C 1024.6 hPa ENE 5.6 km/h 5.6 km/h 88% 0 mm CLR
06:28 13.4 °C 11.5 °C 1024.6 hPa ENE 5.6 km/h 5.6 km/h 88% 0 mm CLR
06:33 13.4 °C 11.3 °C 1024.6 hPa ENE 5.6 km/h 5.6 km/h 87% 0 mm CLR
06:38 13.4 °C 11.3 °C 1024.9 hPa ENE 5.6 km/h 5.6 km/h 87% 0 mm CLR
06:43 13.4 °C 11.4 °C 1024.6 hPa ENE 5.6 km/h 5.6 km/h 88% 0 mm CLR
06:48 13.4 °C 11.4 °C 1024.6 hPa ENE 5.6 km/h 5.6 km/h 88% 0 mm CLR
06:53 13.4 °C 11.5 °C 1024.9 hPa ENE 5.6 km/h 5.6 km/h 88% 0 mm CLR
06:58 13.4 °C 11.4 °C 1024.6 hPa ENE 5.6 km/h 5.6 km/h 88% 0 mm CLR
07:03 13.4 °C 11.4 °C 1024.6 hPa ENE 5.6 km/h 5.6 km/h 88% 0 mm CLR
07:08 13.3 °C 11.4 °C 1024.6 hPa ENE 5.6 km/h 5.6 km/h 88% 0 mm CLR
07:13 13.3 °C 11.3 °C 1024.6 hPa East 5.6 km/h 5.6 km/h 88% 0 mm FEW
07:18 13.3 °C 11.3 °C 1024.9 hPa East 5.6 km/h 5.6 km/h 88% 0 mm FEW
07:23 13.3 °C 11.3 °C 1024.9 hPa East 5.6 km/h 5.6 km/h 88% 0 mm FEW
07:28 13.2 °C 11.4 °C 1024.9 hPa East 5.6 km/h 5.6 km/h 89% 0 mm FEW
07:33 13.2 °C 11.4 °C 1024.9 hPa East 5.6 km/h 5.6 km/h 89% 0 mm FEW
07:38 13.2 °C 11.4 °C 1024.9 hPa East 5.6 km/h 5.6 km/h 89% 0 mm FEW
07:48 13.1 °C 11.3 °C 1025.3 hPa East 5.6 km/h 5.6 km/h 89% 0 mm FEW
07:53 13.1 °C 11.3 °C 1025.3 hPa East 5.6 km/h 5.6 km/h 89% 0 mm FEW
07:58 13.1 °C 11.5 °C 1025.3 hPa East 5.6 km/h 5.6 km/h 90% 0 mm FEW
08:04 13.1 °C 11.5 °C 1025.3 hPa NE 3.7 km/h 3.7 km/h 90% 0 mm BKN
08:09 13.2 °C 11.6 °C 1025.3 hPa NE 3.7 km/h 3.7 km/h 90% 0 mm BKN
08:14 13.4 °C 11.9 °C 1025.3 hPa NE 3.7 km/h 3.7 km/h 91% 0 mm BKN
08:19 13.6 °C 11.9 °C 1025.6 hPa NE 3.7 km/h 3.7 km/h 90% 0 mm BKN
08:24 13.7 °C 12.1 °C 1025.6 hPa NE 3.7 km/h 3.7 km/h 90% 0 mm BKN
08:29 13.9 °C 12.3 °C 1025.6 hPa NE 3.7 km/h 3.7 km/h 90% 0 mm BKN
08:34 14.2 °C 12.4 °C 1025.3 hPa NE 3.7 km/h 3.7 km/h 89% 0 mm BKN
08:39 14.3 °C 12.5 °C 1025.3 hPa NE 3.7 km/h 3.7 km/h 89% 0 mm BKN
08:44 14.4 °C 12.7 °C 1025.3 hPa NE 3.7 km/h 3.7 km/h 89% 0 mm BKN
08:49 14.6 °C 12.8 °C 1025.3 hPa NE 3.7 km/h 3.7 km/h 89% 0 mm BKN
08:54 14.7 °C 12.9 °C 1025.3 hPa NE 3.7 km/h 3.7 km/h 89% 0 mm BKN
08:59 14.9 °C 13.1 °C 1025.3 hPa NE 3.7 km/h 3.7 km/h 89% 0 mm BKN
09:04 15.1 °C 13.3 °C 1025.6 hPa ENE 7.4 km/h 7.4 km/h 89% 0 mm BKN
09:09 15.3 °C 13.3 °C 1025.6 hPa ENE 7.4 km/h 7.4 km/h 88% 0 mm BKN
09:14 15.4 °C 13.4 °C 1025.6 hPa ENE 7.4 km/h 7.4 km/h 88% 0 mm BKN
09:19 15.5 °C 13.5 °C 1025.6 hPa ENE 7.4 km/h 7.4 km/h 88% 0 mm BKN
09:24 15.6 °C 13.6 °C 1025.6 hPa ENE 7.4 km/h 7.4 km/h 88% 0 mm BKN
09:29 15.8 °C 13.8 °C 1025.6 hPa ENE 7.4 km/h 7.4 km/h 88% 0 mm BKN
09:34 15.9 °C 13.9 °C 1025.6 hPa ENE 7.4 km/h 7.4 km/h 88% 0 mm BKN
09:40 16.1 °C 14.1 °C 1025.6 hPa ENE 8 km/h 8 km/h 88% 0 mm BKN
09:45 16.3 °C 14.1 °C 1025.6 hPa ENE 7.4 km/h 7.4 km/h 87% 0 mm BKN
09:50 16.4 °C 14.4 °C 1025.6 hPa ENE 8 km/h 8 km/h 88% 0 mm BKN
09:55 16.6 °C 14.4 °C 1025.6 hPa ENE 8 km/h 8 km/h 87% 0 mm BKN
10:00 16.7 °C 14.6 °C 1025.6 hPa ENE 8 km/h 8 km/h 87% 0 mm BKN
10:05 16.9 °C 14.7 °C 1025.3 hPa East 16.7 km/h 16.7 km/h 87% 0 mm BKN
10:10 17.1 °C 14.9 °C 1025.3 hPa East 16.7 km/h 16.7 km/h 87% 0 mm BKN
10:15 17.2 °C 14.8 °C 1024.9 hPa East 16.7 km/h 16.7 km/h 86% 0 mm BKN
10:20 17.4 °C 15.2 °C 1024.9 hPa East 16.7 km/h 16.7 km/h 87% 0 mm BKN
10:25 17.6 °C 15.2 °C 1024.9 hPa East 16.7 km/h 16.7 km/h 86% 0 mm BKN
10:26 17.7 °C 15.3 °C 1024.9 hPa East 16.7 km/h 16.7 km/h 86% 0 mm BKN
10:31 17.9 °C 15.4 °C 1024.9 hPa East 16.7 km/h 16.7 km/h 85% 0 mm BKN
10:36 18.3 °C 15.6 °C 1024.9 hPa East 16.7 km/h 16.7 km/h 84% 0 mm BKN
10:41 18.6 °C 15.6 °C 1024.6 hPa East 16.7 km/h 16.7 km/h 83% 0 mm BKN
10:46 18.8 °C 16 °C 1024.9 hPa East 16.7 km/h 16.7 km/h 84% 0 mm BKN
10:51 19.1 °C 16.2 °C 1024.9 hPa East 16.7 km/h 16.7 km/h 83% 0 mm BKN
10:56 19.3 °C 16.3 °C 1024.9 hPa East 16.7 km/h 16.7 km/h 83% 0 mm BKN
11:01 19.5 °C 16.3 °C 1024.6 hPa ESE 22.2 km/h 22.2 km/h 82% 0 mm BKN
11:06 19.7 °C 16.4 °C 1024.6 hPa ESE 22.2 km/h 22.2 km/h 81% 0 mm BKN
11:11 19.9 °C 16.6 °C 1024.6 hPa ESE 22.2 km/h 22.2 km/h 81% 0 mm BKN
11:16 20 °C 16.4 °C 1024.6 hPa ESE 22.2 km/h 22.2 km/h 80% 0 mm BKN
11:27 20.3 °C 16.8 °C 1024.6 hPa ESE 22.2 km/h 22.2 km/h 80% 0 mm BKN
11:32 20.4 °C 16.7 °C 1024.6 hPa ESE 22.2 km/h 22.2 km/h 79% 0 mm BKN
11:37 20.6 °C 16.8 °C 1024.6 hPa ESE 22.2 km/h 22.2 km/h 79% 0 mm BKN
11:42 20.7 °C 16.7 °C 1024.6 hPa ESE 22.2 km/h 22.2 km/h 78% 0 mm BKN
11:47 20.9 °C 16.9 °C 1024.6 hPa ESE 22.2 km/h 22.2 km/h 78% 0 mm BKN
11:52 21.2 °C 17 °C 1024.6 hPa ESE 22.2 km/h 22.2 km/h 77% 0 mm BKN
11:57 21.3 °C 17.1 °C 1024.6 hPa ESE 22.2 km/h 22.2 km/h 77% 0 mm BKN
12:02 21.4 °C 17.2 °C 1024.3 hPa East 22.2 km/h 22.2 km/h 77% 0 mm BKN
12:07 21.8 °C 17.4 °C 1024.3 hPa East 22.2 km/h 22.2 km/h 76% 0 mm BKN
12:12 22 °C 17.2 °C 1024.3 hPa East 22.2 km/h 22.2 km/h 74% 0 mm BKN
12:17 22.2 °C 17.3 °C 1024.3 hPa East 22.2 km/h 22.2 km/h 74% 0 mm BKN
12:22 22.4 °C 17.6 °C 1023.9 hPa East 22.2 km/h 22.2 km/h 74% 0 mm BKN
12:27 22.6 °C 17.5 °C 1023.9 hPa East 22.2 km/h 22.2 km/h 73% 0 mm BKN
12:32 22.8 °C 17.9 °C 1023.9 hPa East 22.2 km/h 22.2 km/h 74% 0 mm BKN
12:37 23.2 °C 18.1 °C 1023.6 hPa East 22.2 km/h 22.2 km/h 73% 0 mm BKN
12:42 23.3 °C 18 °C 1023.6 hPa East 22.2 km/h 22.2 km/h 72% 0 mm BKN
12:47 23.2 °C 17.4 °C 1023.6 hPa East 22.2 km/h 22.2 km/h 70% 0 mm BKN
12:49 23.2 °C 17.8 °C 1023.6 hPa East 22.2 km/h 22.2 km/h 72% 0 mm BKN
12:54 23.5 °C 17.9 °C 1023.6 hPa East 22.2 km/h 22.2 km/h 71% 0 mm BKN
12:59 23.7 °C 17.7 °C 1023.6 hPa East 22.2 km/h 22.2 km/h 69% 0 mm BKN
13:04 23.4 °C 17.9 °C 1023.6 hPa ESE 25.9 km/h 25.9 km/h 71% 0 mm BKN
13:09 23.3 °C 17.6 °C 1023.6 hPa ESE 25.9 km/h 25.9 km/h 70% 0 mm BKN
13:14 23.4 °C 17.6 °C 1023.6 hPa ESE 25.9 km/h 25.9 km/h 70% 0 mm BKN
13:19 23.2 °C 17.7 °C 1023.2 hPa ESE 25.9 km/h 25.9 km/h 71% 0 mm BKN
13:24 23.1 °C 17.5 °C 1023.2 hPa ESE 25.9 km/h 25.9 km/h 71% 0 mm BKN
13:29 23.1 °C 17.8 °C 1022.9 hPa ESE 25.9 km/h 25.9 km/h 72% 0 mm BKN
13:34 23.3 °C 17.8 °C 1023.2 hPa ESE 25.9 km/h 25.9 km/h 71% 0 mm BKN
13:40 23.3 °C 17.8 °C 1023.2 hPa ESE 25.7 km/h 25.7 km/h 71% 0 mm BKN
13:45 23.4 °C 17.6 °C 1022.9 hPa ESE 25.7 km/h 25.7 km/h 70% 0 mm BKN
13:50 23.2 °C 17.7 °C 1022.9 hPa ESE 25.7 km/h 25.7 km/h 71% 0 mm BKN
13:55 23.3 °C 17.9 °C 1022.9 hPa ESE 22.5 km/h 25.7 km/h 72% 0 mm BKN
14:00 23.3 °C 18 °C 1022.6 hPa ESE 22.5 km/h 22.5 km/h 72% 0 mm BKN
14:05 23.5 °C 17.7 °C 1022.6 hPa East 20.4 km/h 20.4 km/h 70% 0 mm BKN
14:10 23.3 °C 17.8 °C 1022.6 hPa East 20.9 km/h 20.9 km/h 71% 0 mm BKN
14:15 23.6 °C 17.8 °C 1022.6 hPa East 20.9 km/h 20.9 km/h 70% 0 mm BKN
14:20 23.8 °C 18 °C 1022.6 hPa East 20.9 km/h 20.9 km/h 70% 0 mm BKN
14:25 24.1 °C 18.3 °C 1022.6 hPa East 20.9 km/h 20.9 km/h 70% 0 mm BKN
14:30 24.4 °C 18.1 °C 1022.2 hPa East 20.9 km/h 20.9 km/h 68% 0 mm BKN
14:35 24.4 °C 17.9 °C 1022.2 hPa East 20.4 km/h 20.4 km/h 67% 0 mm BKN
14:40 24.2 °C 17.9 °C 1021.9 hPa East 20.4 km/h 20.4 km/h 68% 0 mm BKN
14:45 24.3 °C 18 °C 1021.9 hPa East 20.4 km/h 20.4 km/h 68% 0 mm BKN
14:50 24.3 °C 18.1 °C 1021.9 hPa East 20.4 km/h 20.4 km/h 68% 0 mm BKN
14:55 24.3 °C 18 °C 1021.9 hPa ESE 13 km/h 13 km/h 68% 0 mm BKN
15:05 24.5 °C 17.7 °C 1021.6 hPa East 20.4 km/h 20.4 km/h 66% 0 mm BKN
15:10 24.6 °C 18 °C 1021.9 hPa East 20.4 km/h 20.4 km/h 67% 0 mm BKN
15:15 24.6 °C 17.8 °C 1021.6 hPa East 20.4 km/h 20.4 km/h 66% 0 mm BKN
15:20 24.3 °C 18 °C 1021.6 hPa East 20.4 km/h 20.4 km/h 68% 0 mm BKN
15:25 24.1 °C 17.8 °C 1021.6 hPa East 20.4 km/h 20.4 km/h 68% 0 mm BKN
15:30 24 °C 17.7 °C 1021.6 hPa East 20.4 km/h 20.4 km/h 68% 0 mm BKN
15:35 24.1 °C 17.8 °C 1021.6 hPa East 20.4 km/h 20.4 km/h 68% 0 mm BKN
15:40 24.1 °C 17.8 °C 1021.2 hPa East 20.4 km/h 20.4 km/h 68% 0 mm BKN
15:45 24.1 °C 18.1 °C 1021.2 hPa East 20.4 km/h 20.4 km/h 69% 0 mm BKN
15:50 24.1 °C 17.8 °C 1021.2 hPa East 20.4 km/h 20.4 km/h 68% 0 mm BKN
15:55 24.2 °C 18.1 °C 1021.2 hPa East 20.4 km/h 20.4 km/h 69% 0 mm BKN
16:01 24.1 °C 17.8 °C 1021.2 hPa East 20.4 km/h 20.4 km/h 68% 0 mm BKN
16:06 24.2 °C 17.9 °C 1020.9 hPa East 18.5 km/h 18.5 km/h 68% 0 mm BKN
16:11 24.1 °C 17.8 °C 1020.9 hPa East 18.5 km/h 18.5 km/h 68% 0 mm BKN
16:16 24.2 °C 17.9 °C 1020.9 hPa East 18.5 km/h 18.5 km/h 68% 0 mm BKN
16:21 24.2 °C 17.9 °C 1020.9 hPa East 18.5 km/h 18.5 km/h 68% 0 mm BKN
16:26 24.3 °C 18 °C 1021.2 hPa East 18.5 km/h 18.5 km/h 68% 0 mm BKN
16:31 24.3 °C 18 °C 1021.2 hPa East 18.5 km/h 18.5 km/h 68% 0 mm BKN
16:36 24.2 °C 17.7 °C 1020.9 hPa East 18.5 km/h 18.5 km/h 67% 0 mm BKN
16:41 24.1 °C 17.6 °C 1020.9 hPa East 18.5 km/h 18.5 km/h 67% 0 mm BKN
16:46 23.9 °C 17.6 °C 1020.9 hPa East 18.5 km/h 18.5 km/h 68% 0 mm BKN
16:51 23.8 °C 17.7 °C 1021.2 hPa East 18.5 km/h 18.5 km/h 69% 0 mm BKN
16:56 23.7 °C 17.9 °C 1021.2 hPa East 18.5 km/h 18.5 km/h 70% 0 mm BKN
17:01 23.7 °C 17.7 °C 1020.9 hPa East 18.5 km/h 18.5 km/h 69% 0 mm OVC
17:06 23.6 °C 17.6 °C 1020.9 hPa East 13 km/h 13 km/h 69% 0 mm OVC
17:11 23.6 °C 17.6 °C 1020.9 hPa East 13 km/h 13 km/h 69% 0 mm OVC
17:16 23.6 °C 17.6 °C 1020.9 hPa East 13 km/h 13 km/h 69% 0 mm OVC
17:21 23.6 °C 17.6 °C 1020.9 hPa East 13 km/h 13 km/h 69% 0 mm OVC
17:26 23.6 °C 17.8 °C 1020.9 hPa East 13 km/h 13 km/h 70% 0 mm OVC
17:32 23.4 °C 17.7 °C 1020.5 hPa East 13 km/h 13 km/h 70% 0 mm OVC
17:37 23.4 °C 17.6 °C 1020.5 hPa East 13 km/h 13 km/h 70% 0 mm OVC
17:42 23.3 °C 17.6 °C 1020.5 hPa East 13 km/h 13 km/h 70% 0 mm OVC
17:47 23.3 °C 17.6 °C 1020.5 hPa East 13 km/h 13 km/h 70% 0 mm OVC
17:52 23.3 °C 17.5 °C 1020.5 hPa East 13 km/h 13 km/h 70% 0 mm OVC
17:57 23.2 °C 17.7 °C 1020.5 hPa East 13 km/h 13 km/h 71% 0 mm OVC
18:02 23.1 °C 17.6 °C 1020.5 hPa East 14.8 km/h 14.8 km/h 71% 0 mm OVC
18:07 23.1 °C 17.5 °C 1020.2 hPa East 14.8 km/h 14.8 km/h 71% 0 mm OVC
18:12 22.9 °C 17.4 °C 1020.2 hPa East 14.8 km/h 14.8 km/h 71% 0 mm OVC
18:17 22.8 °C 17.5 °C 1020.2 hPa East 14.8 km/h 14.8 km/h 72% 0 mm OVC
18:22 22.8 °C 17.4 °C 1020.2 hPa East 14.8 km/h 14.8 km/h 72% 0 mm OVC
18:27 22.6 °C 17.3 °C 1020.2 hPa East 14.8 km/h 14.8 km/h 72% 0 mm OVC
18:28 22.6 °C 17.3 °C 1020.2 hPa East 14.8 km/h 14.8 km/h 72% 0 mm OVC
18:34 22.4 °C 17.4 °C 1020.2 hPa East 14.8 km/h 14.8 km/h 73% 0 mm OVC
18:39 22.4 °C 17.3 °C 1020.2 hPa East 14.8 km/h 14.8 km/h 73% 0 mm OVC
18:44 22.3 °C 17.3 °C 1020.2 hPa East 14.8 km/h 14.8 km/h 73% 0 mm OVC
18:49 22.2 °C 17.2 °C 1020.2 hPa East 14.8 km/h 14.8 km/h 73% 0 mm OVC
18:54 22.1 °C 17.1 °C 1020.2 hPa East 14.8 km/h 14.8 km/h 73% 0 mm OVC
18:59 22.1 °C 17.1 °C 1020.2 hPa East 14.8 km/h 14.8 km/h 73% 0 mm OVC
19:04 22.1 °C 17.2 °C 1020.2 hPa East 13 km/h 13 km/h 74% 0 mm OVC
19:09 22 °C 16.9 °C 1020.2 hPa East 13 km/h 13 km/h 73% 0 mm OVC
19:14 22 °C 17.2 °C 1020.2 hPa East 13 km/h 13 km/h 74% 0 mm OVC
19:19 21.9 °C 17.1 °C 1020.2 hPa East 13 km/h 13 km/h 74% 0 mm OVC
19:24 22 °C 17.2 °C 1020.2 hPa East 13 km/h 13 km/h 74% 0 mm OVC
19:29 22.1 °C 17.2 °C 1020.2 hPa East 13 km/h 13 km/h 74% 0 mm OVC
19:34 22 °C 17.4 °C 1020.5 hPa East 13 km/h 13 km/h 75% 0 mm OVC
19:39 21.9 °C 17.3 °C 1020.5 hPa East 13 km/h 13 km/h 75% 0 mm OVC
19:44 21.9 °C 17.4 °C 1020.2 hPa East 13 km/h 13 km/h 76% 0 mm OVC
19:49 21.8 °C 17.4 °C 1020.2 hPa East 13 km/h 13 km/h 76% 0 mm OVC
19:54 21.7 °C 17.5 °C 1020.2 hPa East 13 km/h 13 km/h 77% 0 mm OVC
19:59 21.6 °C 17.4 °C 1020.2 hPa East 13 km/h 13 km/h 77% 0 mm OVC
20:04 21.5 °C 17.3 °C 1020.5 hPa ESE 44.4 km/h 44.4 km/h 77% 0 mm OVC
20:09 21.4 °C 17.4 °C 1020.5 hPa ESE 44.4 km/h 44.4 km/h 78% 0 mm OVC
20:14 21.2 °C 17.4 °C 1020.5 hPa ESE 44.4 km/h 44.4 km/h 79% 0 mm OVC
20:19 21.2 °C 17.4 °C 1020.5 hPa ESE 44.4 km/h 44.4 km/h 79% 0 mm OVC
20:24 21.1 °C 17.4 °C 1020.5 hPa ESE 44.4 km/h 44.4 km/h 80% 0 mm OVC
20:29 21 °C 17.4 °C 1020.5 hPa ESE 44.4 km/h 44.4 km/h 80% 0 mm OVC
20:34 20.9 °C 17.4 °C 1020.5 hPa ESE 44.4 km/h 44.4 km/h 80% 0 mm OVC
20:39 20.9 °C 17.5 °C 1020.5 hPa ESE 44.4 km/h 44.4 km/h 81% 0 mm OVC
20:44 20.8 °C 17.4 °C 1020.5 hPa ESE 44.4 km/h 44.4 km/h 81% 0 mm OVC
20:49 20.8 °C 17.4 °C 1020.5 hPa ESE 44.4 km/h 44.4 km/h 81% 0 mm OVC
20:54 20.7 °C 17.3 °C 1020.5 hPa East 20.4 km/h 20.4 km/h 81% 0 mm BKN
20:59 20.7 °C 17.5 °C 1020.5 hPa East 20.4 km/h 20.4 km/h 82% 0 mm BKN
21:04 20.6 °C 17.4 °C 1020.9 hPa East 46.3 km/h 46.3 km/h 82% 0 mm CLR
21:09 20.6 °C 17.4 °C 1020.9 hPa East 46.3 km/h 46.3 km/h 82% 0 mm CLR
21:15 20.6 °C 17.4 °C 1020.9 hPa East 25.7 km/h 46.7 km/h 82% 0 mm CLR
21:20 20.6 °C 17.4 °C 1020.5 hPa East 25.7 km/h 46.7 km/h 82% 0 mm CLR
21:25 20.5 °C 17.3 °C 1020.5 hPa East 25.7 km/h 46.7 km/h 82% 0 mm CLR
21:30 20.5 °C 17.5 °C 1020.5 hPa East 25.7 km/h 46.7 km/h 83% 0 mm CLR
21:35 20.4 °C 17.4 °C 1020.5 hPa East 25.7 km/h 46.7 km/h 83% 0 mm CLR
21:40 20.4 °C 17.4 °C 1020.5 hPa East 46.3 km/h 46.3 km/h 83% 0 mm CLR
21:45 20.3 °C 17.3 °C 1020.5 hPa East 25.7 km/h 46.7 km/h 83% 0 mm CLR
21:50 20.3 °C 17.6 °C 1020.5 hPa East 46.3 km/h 46.3 km/h 84% 0 mm CLR
21:55 20.3 °C 17.5 °C 1020.5 hPa East 25.7 km/h 46.7 km/h 84% 0 mm CLR
22:00 20.2 °C 17.4 °C 1020.5 hPa East 46.3 km/h 46.3 km/h 84% 0 mm CLR
22:05 20.2 °C 17.4 °C 1020.5 hPa East 22.5 km/h 46.7 km/h 84% 0 mm BKN
22:10 20.2 °C 17.4 °C 1020.5 hPa East 22.5 km/h 45.1 km/h 84% 0 mm BKN
22:15 20.2 °C 17.4 °C 1020.5 hPa East 22.5 km/h 45.1 km/h 84% 0 mm BKN
22:20 20.2 °C 17.4 °C 1020.5 hPa East 22.5 km/h 45.1 km/h 84% 0 mm BKN
22:25 20.1 °C 17.5 °C 1020.5 hPa ESE 27.4 km/h 45.1 km/h 85% 0 mm OVC
22:30 20.1 °C 17.5 °C 1020.9 hPa ESE 27.4 km/h 41.8 km/h 85% 0 mm OVC
22:35 20.1 °C 17.5 °C 1020.9 hPa ESE 42.6 km/h 42.6 km/h 85% 0 mm OVC
22:40 20.1 °C 17.4 °C 1020.9 hPa ESE 42.6 km/h 42.6 km/h 85% 0 mm OVC
22:50 20.1 °C 17.4 °C 1020.9 hPa ESE 42.6 km/h 42.6 km/h 85% 0 mm OVC
22:55 20.1 °C 17.4 °C 1021.2 hPa ESE 42.6 km/h 42.6 km/h 85% 0 mm OVC
23:00 20.1 °C 17.4 °C 1021.2 hPa ESE 42.6 km/h 42.6 km/h 85% 0 mm OVC
23:05 20.1 °C 17.4 °C 1021.2 hPa ESE 24.1 km/h 24.1 km/h 85% 0 mm OVC
23:10 20.1 °C 17.4 °C 1020.9 hPa ESE 24.1 km/h 24.1 km/h 85% 0 mm OVC
23:15 20.1 °C 17.4 °C 1020.9 hPa ESE 24.1 km/h 24.1 km/h 85% 0 mm OVC
23:20 20 °C 17.4 °C 1020.9 hPa ESE 24.1 km/h 24.1 km/h 85% 0 mm OVC
23:30 19.9 °C 17.6 °C 1020.9 hPa ESE 24.1 km/h 24.1 km/h 86% 0 mm OVC
23:35 19.9 °C 17.6 °C 1020.5 hPa ESE 24.1 km/h 24.1 km/h 86% 0 mm OVC
23:40 19.9 °C 17.6 °C 1020.5 hPa ESE 24.1 km/h 24.1 km/h 86% 0 mm OVC
23:45 19.8 °C 17.4 °C 1020.2 hPa ESE 24.1 km/h 24.1 km/h 86% 0 mm OVC
23:50 19.8 °C 17.4 °C 1020.2 hPa ESE 24.1 km/h 24.1 km/h 86% 0 mm OVC
23:55 19.8 °C 17.6 °C 1020.2 hPa ESE 24.1 km/h 24.1 km/h 87% 0 mm OVC
Piedmont Bend
Compliments of Weather Underground - 4 mb